sensor_id;sensor_type;location;lat;lon;timestamp;pressure;altitude;pressure_sealevel;temperature;humidity
42725;BME280;28369;44.046;23.014;2023-04-29T00:01:21;101168.38;;;15.58;42.36
42725;BME280;28369;44.046;23.014;2023-04-29T00:03:46;101242.19;;;16.27;42.32
42725;BME280;28369;44.046;23.014;2023-04-29T00:06:12;101214.56;;;16.01;42.50
42725;BME280;28369;44.046;23.014;2023-04-29T00:08:37;101164.53;;;15.70;42.13
42725;BME280;28369;44.046;23.014;2023-04-29T00:11:03;101127.84;;;15.48;42.49
42725;BME280;28369;44.046;23.014;2023-04-29T00:13:28;101167.13;;;15.80;42.25
42725;BME280;28369;44.046;23.014;2023-04-29T00:15:54;101176.75;;;15.81;42.26
42725;BME280;28369;44.046;23.014;2023-04-29T00:18:19;101149.50;;;15.61;42.38
42725;BME280;28369;44.046;23.014;2023-04-29T00:20:45;101230.69;;;15.90;42.70
42725;BME280;28369;44.046;23.014;2023-04-29T00:23:10;101154.47;;;15.18;42.64
42725;BME280;28369;44.046;23.014;2023-04-29T00:25:36;101172.84;;;15.30;42.75
42725;BME280;28369;44.046;23.014;2023-04-29T00:28:04;100958.66;;;14.06;42.79
42725;BME280;28369;44.046;23.014;2023-04-29T00:30:30;101060.84;;;14.44;43.08
42725;BME280;28369;44.046;23.014;2023-04-29T00:32:56;101145.88;;;15.16;42.72
42725;BME280;28369;44.046;23.014;2023-04-29T00:35:22;101211.78;;;15.47;43.06
42725;BME280;28369;44.046;23.014;2023-04-29T00:37:47;101170.41;;;15.09;43.12
42725;BME280;28369;44.046;23.014;2023-04-29T00:40:13;101198.88;;;15.34;43.08
42725;BME280;28369;44.046;23.014;2023-04-29T00:42:40;101000.94;;;14.15;42.70
42725;BME280;28369;44.046;23.014;2023-04-29T00:45:06;101091.44;;;14.66;42.78
42725;BME280;28369;44.046;23.014;2023-04-29T00:47:32;101237.72;;;15.53;42.55
42725;BME280;28369;44.046;23.014;2023-04-29T00:49:57;101191.66;;;15.54;42.35
42725;BME280;28369;44.046;23.014;2023-04-29T00:52:23;100945.75;;;13.93;42.69
42725;BME280;28369;44.046;23.014;2023-04-29T00:54:49;101005.69;;;14.49;42.35
42725;BME280;28369;44.046;23.014;2023-04-29T00:57:16;101139.31;;;15.38;42.28
42725;BME280;28369;44.046;23.014;2023-04-29T00:59:43;101221.66;;;15.83;42.13
42725;BME280;28369;44.046;23.014;2023-04-29T01:02:09;101112.00;;;15.10;42.16
42725;BME280;28369;44.046;23.014;2023-04-29T01:04:35;101164.16;;;15.37;42.38
42725;BME280;28369;44.046;23.014;2023-04-29T01:07:08;101236.53;;;15.94;42.47
42725;BME280;28369;44.046;23.014;2023-04-29T01:10:05;101245.47;;;15.93;42.30
42725;BME280;28369;44.046;23.014;2023-04-29T01:13:05;101233.03;;;15.93;42.32
42725;BME280;28369;44.046;23.014;2023-04-29T01:20:29;101191.53;;;15.84;42.91
42725;BME280;28369;44.046;23.014;2023-04-29T01:22:55;101149.56;;;15.79;42.31
42725;BME280;28369;44.046;23.014;2023-04-29T01:25:21;101169.41;;;15.93;42.51
42725;BME280;28369;44.046;23.014;2023-04-29T01:30:27;101207.59;;;16.00;43.22
42725;BME280;28369;44.046;23.014;2023-04-29T01:39:12;101141.03;;;16.48;42.29
42725;BME280;28369;44.046;23.014;2023-04-29T01:44:07;101186.47;;;16.71;42.48
42725;BME280;28369;44.046;23.014;2023-04-29T01:46:33;101202.34;;;16.89;42.66
42725;BME280;28369;44.046;23.014;2023-04-29T01:48:59;101160.44;;;16.48;42.50
42725;BME280;28369;44.046;23.014;2023-04-29T01:51:25;101044.75;;;15.85;42.08
42725;BME280;28369;44.046;23.014;2023-04-29T01:53:50;101222.25;;;17.11;41.46
42725;BME280;28369;44.046;23.014;2023-04-29T01:56:16;101217.22;;;16.82;42.38
42725;BME280;28369;44.046;23.014;2023-04-29T01:58:41;101034.56;;;15.80;41.85
42725;BME280;28369;44.046;23.014;2023-04-29T02:01:06;100900.50;;;14.61;42.24
42725;BME280;28369;44.046;23.014;2023-04-29T02:03:34;101143.31;;;15.70;43.18
42725;BME280;28369;44.046;23.014;2023-04-29T02:06:00;101234.44;;;16.33;42.95
42725;BME280;28369;44.046;23.014;2023-04-29T02:08:26;101208.66;;;16.26;43.90
42725;BME280;28369;44.046;23.014;2023-04-29T02:10:57;101237.69;;;16.45;43.85
42725;BME280;28369;44.046;23.014;2023-04-29T02:13:23;101225.72;;;16.05;44.91
42725;BME280;28369;44.046;23.014;2023-04-29T02:15:48;101169.22;;;15.77;44.73
42725;BME280;28369;44.046;23.014;2023-04-29T02:18:14;101163.47;;;15.63;44.61
42725;BME280;28369;44.046;23.014;2023-04-29T02:20:40;101094.63;;;15.26;44.67
42725;BME280;28369;44.046;23.014;2023-04-29T02:23:06;101156.63;;;15.61;44.85
42725;BME280;28369;44.046;23.014;2023-04-29T02:25:31;101141.91;;;15.94;44.12
42725;BME280;28369;44.046;23.014;2023-04-29T02:27:57;101191.31;;;16.57;43.45
42725;BME280;28369;44.046;23.014;2023-04-29T02:30:22;100990.97;;;15.57;43.16
42725;BME280;28369;44.046;23.014;2023-04-29T02:32:47;101066.22;;;15.46;43.80
42725;BME280;28369;44.046;23.014;2023-04-29T02:35:13;101104.56;;;16.05;43.27
42725;BME280;28369;44.046;23.014;2023-04-29T02:37:38;101001.56;;;15.57;42.92
42725;BME280;28369;44.046;23.014;2023-04-29T02:40:04;101221.19;;;16.78;42.97
42725;BME280;28369;44.046;23.014;2023-04-29T02:42:30;100994.84;;;15.26;42.80
42725;BME280;28369;44.046;23.014;2023-04-29T02:44:56;101077.53;;;16.02;42.75
42725;BME280;28369;44.046;23.014;2023-04-29T02:47:22;101190.00;;;16.80;42.44
42725;BME280;28369;44.046;23.014;2023-04-29T02:49:47;101220.56;;;16.84;42.28
42725;BME280;28369;44.046;23.014;2023-04-29T02:52:13;101233.16;;;17.00;41.86
42725;BME280;28369;44.046;23.014;2023-04-29T02:54:38;100999.06;;;15.37;42.07
42725;BME280;28369;44.046;23.014;2023-04-29T02:57:04;101164.13;;;16.55;42.06
42725;BME280;28369;44.046;23.014;2023-04-29T02:59:29;101243.09;;;16.98;42.09
42725;BME280;28369;44.046;23.014;2023-04-29T03:01:55;101024.34;;;15.85;41.79
42725;BME280;28369;44.046;23.014;2023-04-29T03:04:21;101195.47;;;17.04;41.61
42725;BME280;28369;44.046;23.014;2023-04-29T03:06:47;101248.78;;;17.37;41.23
42725;BME280;28369;44.046;23.014;2023-04-29T03:09:12;101004.13;;;15.66;41.84
42725;BME280;28369;44.046;23.014;2023-04-29T03:11:38;101250.75;;;17.01;42.28
42725;BME280;28369;44.046;23.014;2023-04-29T03:14:04;101212.75;;;16.82;42.25
42725;BME280;28369;44.046;23.014;2023-04-29T03:16:29;101287.28;;;17.25;42.03
42725;BME280;28369;44.046;23.014;2023-04-29T03:18:55;101185.78;;;16.69;41.99
42725;BME280;28369;44.046;23.014;2023-04-29T03:21:22;101220.94;;;16.89;42.11
42725;BME280;28369;44.046;23.014;2023-04-29T03:23:47;101038.28;;;15.87;41.98
42725;BME280;28369;44.046;23.014;2023-04-29T03:26:13;101290.91;;;17.24;42.44
42725;BME280;28369;44.046;23.014;2023-04-29T03:28:39;101195.94;;;16.73;42.39
42725;BME280;28369;44.046;23.014;2023-04-29T03:31:04;101058.72;;;15.77;42.54
42725;BME280;28369;44.046;23.014;2023-04-29T03:33:30;101282.22;;;17.14;42.35
42725;BME280;28369;44.046;23.014;2023-04-29T03:35:55;101132.44;;;16.10;42.44
42725;BME280;28369;44.046;23.014;2023-04-29T03:38:20;101286.56;;;16.79;42.50
42725;BME280;28369;44.046;23.014;2023-04-29T03:40:46;101264.91;;;16.65;42.99
42725;BME280;28369;44.046;23.014;2023-04-29T03:43:12;100866.22;;;14.14;43.00
42725;BME280;28369;44.046;23.014;2023-04-29T03:45:38;101239.25;;;16.56;42.79
42725;BME280;28369;44.046;23.014;2023-04-29T03:48:04;101269.13;;;16.76;42.54
42725;BME280;28369;44.046;23.014;2023-04-29T03:50:30;101118.34;;;16.09;42.01
42725;BME280;28369;44.046;23.014;2023-04-29T03:52:56;101272.47;;;17.22;41.75
42725;BME280;28369;44.046;23.014;2023-04-29T03:55:22;101287.78;;;17.28;41.67
42725;BME280;28369;44.046;23.014;2023-04-29T03:57:47;101124.41;;;16.46;41.52
42725;BME280;28369;44.046;23.014;2023-04-29T04:00:13;101262.50;;;17.59;41.21
42725;BME280;28369;44.046;23.014;2023-04-29T04:02:39;101118.91;;;16.65;40.85
42725;BME280;28369;44.046;23.014;2023-04-29T04:05:05;101085.22;;;16.66;40.74
42725;BME280;28369;44.046;23.014;2023-04-29T04:07:30;101276.41;;;18.46;39.19
42725;BME280;28369;44.046;23.014;2023-04-29T04:09:56;101169.72;;;18.64;37.61
42725;BME280;28369;44.046;23.014;2023-04-29T04:12:21;101232.31;;;20.12;35.60
42725;BME280;28369;44.046;23.014;2023-04-29T04:14:47;101163.81;;;19.81;34.99
42725;BME280;28369;44.046;23.014;2023-04-29T04:17:12;101313.50;;;21.40;33.83
42725;BME280;28369;44.046;23.014;2023-04-29T04:19:38;101065.53;;;19.62;35.14
42725;BME280;28369;44.046;23.014;2023-04-29T04:22:03;101320.88;;;20.39;35.73
42725;BME280;28369;44.046;23.014;2023-04-29T04:24:29;101308.78;;;20.51;35.71
42725;BME280;28369;44.046;23.014;2023-04-29T04:26:54;101282.84;;;20.83;35.54
42725;BME280;28369;44.046;23.014;2023-04-29T04:29:19;101286.66;;;21.04;34.66
42725;BME280;28369;44.046;23.014;2023-04-29T04:31:45;101209.16;;;20.66;34.64
42725;BME280;28369;44.046;23.014;2023-04-29T04:34:10;101205.94;;;21.09;34.30
42725;BME280;28369;44.046;23.014;2023-04-29T04:36:36;101080.19;;;20.12;35.24
42725;BME280;28369;44.046;23.014;2023-04-29T04:39:02;101149.69;;;21.02;34.12
42725;BME280;28369;44.046;23.014;2023-04-29T04:41:27;101049.78;;;21.83;32.79
42725;BME280;28369;44.046;23.014;2023-04-29T04:43:55;101280.59;;;24.11;30.95
42725;BME280;28369;44.046;23.014;2023-04-29T04:46:21;101264.31;;;24.53;30.38
42725;BME280;28369;44.046;23.014;2023-04-29T04:48:46;101134.47;;;23.79;29.72
42725;BME280;28369;44.046;23.014;2023-04-29T04:51:12;101149.09;;;22.66;31.20
42725;BME280;28369;44.046;23.014;2023-04-29T04:53:39;101213.91;;;22.05;32.98
42725;BME280;28369;44.046;23.014;2023-04-29T04:56:05;101018.22;;;19.64;35.04
42725;BME280;28369;44.046;23.014;2023-04-29T04:58:31;101215.69;;;20.48;35.38
42725;BME280;28369;44.046;23.014;2023-04-29T05:01:00;101264.63;;;20.64;35.86
42725;BME280;28369;44.046;23.014;2023-04-29T05:03:26;101306.91;;;20.06;37.25
42725;BME280;28369;44.046;23.014;2023-04-29T05:05:56;101275.28;;;19.94;37.27
42725;BME280;28369;44.046;23.014;2023-04-29T05:08:21;101262.00;;;19.78;37.25
42725;BME280;28369;44.046;23.014;2023-04-29T05:10:47;101277.63;;;19.49;38.14
42725;BME280;28369;44.046;23.014;2023-04-29T05:13:12;101251.47;;;19.84;37.40
42725;BME280;28369;44.046;23.014;2023-04-29T05:15:38;101307.03;;;20.44;37.40
42725;BME280;28369;44.046;23.014;2023-04-29T05:18:03;101173.19;;;19.38;37.33
42725;BME280;28369;44.046;23.014;2023-04-29T05:20:29;101321.25;;;20.36;37.31
42725;BME280;28369;44.046;23.014;2023-04-29T05:22:54;101237.06;;;20.02;38.00
42725;BME280;28369;44.046;23.014;2023-04-29T05:25:20;101223.56;;;19.16;38.50
42725;BME280;28369;44.046;23.014;2023-04-29T05:27:46;101302.16;;;20.16;37.58
42725;BME280;28369;44.046;23.014;2023-04-29T05:30:11;101308.16;;;20.49;37.24
42725;BME280;28369;44.046;23.014;2023-04-29T05:32:37;101237.53;;;20.29;37.01
42725;BME280;28369;44.046;23.014;2023-04-29T05:35:02;101272.34;;;20.59;36.82
42725;BME280;28369;44.046;23.014;2023-04-29T05:37:28;101307.00;;;20.90;36.97
42725;BME280;28369;44.046;23.014;2023-04-29T05:39:56;101281.88;;;20.99;36.15
42725;BME280;28369;44.046;23.014;2023-04-29T05:42:22;101222.41;;;20.82;35.81
42725;BME280;28369;44.046;23.014;2023-04-29T05:44:48;101306.97;;;21.43;36.62
42725;BME280;28369;44.046;23.014;2023-04-29T05:47:14;101324.63;;;21.82;35.44
42725;BME280;28369;44.046;23.014;2023-04-29T05:49:39;101332.13;;;22.08;35.71
42725;BME280;28369;44.046;23.014;2023-04-29T05:52:05;101291.50;;;21.53;35.61
42725;BME280;28369;44.046;23.014;2023-04-29T05:54:34;101319.44;;;21.66;34.76
42725;BME280;28369;44.046;23.014;2023-04-29T05:56:59;101275.53;;;21.60;35.34
42725;BME280;28369;44.046;23.014;2023-04-29T05:59:31;101312.06;;;21.38;36.88
42725;BME280;28369;44.046;23.014;2023-04-29T06:01:57;101296.03;;;21.68;35.56
42725;BME280;28369;44.046;23.014;2023-04-29T06:04:26;101284.28;;;21.09;36.79
42725;BME280;28369;44.046;23.014;2023-04-29T06:06:55;101300.50;;;21.22;36.83
42725;BME280;28369;44.046;23.014;2023-04-29T06:09:22;101263.06;;;20.93;36.66
42725;BME280;28369;44.046;23.014;2023-04-29T06:11:51;101251.56;;;21.52;36.08
42725;BME280;28369;44.046;23.014;2023-04-29T06:14:16;101240.75;;;21.60;35.84
42725;BME280;28369;44.046;23.014;2023-04-29T06:16:42;101238.81;;;22.05;35.26
42725;BME280;28369;44.046;23.014;2023-04-29T06:19:08;101294.56;;;22.02;35.79
42725;BME280;28369;44.046;23.014;2023-04-29T06:21:33;101292.09;;;22.22;35.50
42725;BME280;28369;44.046;23.014;2023-04-29T06:23:59;101090.47;;;20.98;34.97
42725;BME280;28369;44.046;23.014;2023-04-29T06:26:25;101049.66;;;20.60;34.67
42725;BME280;28369;44.046;23.014;2023-04-29T06:28:50;101296.53;;;21.33;36.29
42725;BME280;28369;44.046;23.014;2023-04-29T06:31:16;101246.38;;;21.65;35.28
42725;BME280;28369;44.046;23.014;2023-04-29T06:33:41;101207.78;;;21.74;35.00
42725;BME280;28369;44.046;23.014;2023-04-29T06:36:07;101098.53;;;20.60;35.50
42725;BME280;28369;44.046;23.014;2023-04-29T06:38:32;101276.53;;;22.10;35.33
42725;BME280;28369;44.046;23.014;2023-04-29T06:40:58;101229.97;;;21.53;36.33
42725;BME280;28369;44.046;23.014;2023-04-29T06:43:31;101239.31;;;21.94;34.73
42725;BME280;28369;44.046;23.014;2023-04-29T06:45:56;101187.25;;;21.97;34.26
42725;BME280;28369;44.046;23.014;2023-04-29T06:48:22;101280.63;;;22.71;33.65
42725;BME280;28369;44.046;23.014;2023-04-29T06:50:51;101245.75;;;22.65;33.11
42725;BME280;28369;44.046;23.014;2023-04-29T06:53:17;101207.59;;;22.34;33.58
42725;BME280;28369;44.046;23.014;2023-04-29T06:55:43;101121.22;;;22.04;33.85
42725;BME280;28369;44.046;23.014;2023-04-29T06:58:11;101127.72;;;22.44;32.72
42725;BME280;28369;44.046;23.014;2023-04-29T07:00:37;101190.06;;;22.88;33.14
42725;BME280;28369;44.046;23.014;2023-04-29T07:03:03;101288.00;;;23.89;32.95
42725;BME280;28369;44.046;23.014;2023-04-29T07:05:28;101223.84;;;23.59;31.90
42725;BME280;28369;44.046;23.014;2023-04-29T07:07:53;101251.00;;;23.91;31.89
42725;BME280;28369;44.046;23.014;2023-04-29T07:10:21;101291.94;;;24.00;32.55
42725;BME280;28369;44.046;23.014;2023-04-29T07:12:46;101303.53;;;24.07;32.10
42725;BME280;28369;44.046;23.014;2023-04-29T07:15:12;101290.09;;;24.07;32.28
42725;BME280;28369;44.046;23.014;2023-04-29T07:21:06;101237.84;;;23.55;32.45
42725;BME280;28369;44.046;23.014;2023-04-29T07:30:29;101086.09;;;21.12;34.94
42725;BME280;28369;44.046;23.014;2023-04-29T07:32:54;101249.41;;;22.57;34.09
42725;BME280;28369;44.046;23.014;2023-04-29T07:35:20;101233.75;;;22.89;33.55
42725;BME280;28369;44.046;23.014;2023-04-29T07:37:45;101327.19;;;23.49;33.76
42725;BME280;28369;44.046;23.014;2023-04-29T07:43:33;101321.53;;;23.72;33.37
42725;BME280;28369;44.046;23.014;2023-04-29T07:49:20;101179.56;;;20.76;36.48
42725;BME280;28369;44.046;23.014;2023-04-29T07:51:45;101131.94;;;21.82;35.00
42725;BME280;28369;44.046;23.014;2023-04-29T07:54:11;101308.91;;;23.30;33.77
42725;BME280;28369;44.046;23.014;2023-04-29T07:56:36;101263.56;;;22.79;33.73
42725;BME280;28369;44.046;23.014;2023-04-29T07:59:01;101322.28;;;23.52;33.43
42725;BME280;28369;44.046;23.014;2023-04-29T08:01:27;101093.44;;;22.05;33.90
42725;BME280;28369;44.046;23.014;2023-04-29T08:03:53;101130.19;;;22.18;34.79
42725;BME280;28369;44.046;23.014;2023-04-29T08:06:19;101255.34;;;23.09;35.02
42725;BME280;28369;44.046;23.014;2023-04-29T08:08:47;101152.28;;;21.10;36.65
42725;BME280;28369;44.046;23.014;2023-04-29T08:11:18;101043.59;;;20.51;36.59
42725;BME280;28369;44.046;23.014;2023-04-29T08:13:45;101273.31;;;22.15;36.40
42725;BME280;28369;44.046;23.014;2023-04-29T08:16:10;101331.91;;;23.11;35.64
42725;BME280;28369;44.046;23.014;2023-04-29T08:18:36;101281.03;;;22.97;35.63
42725;BME280;28369;44.046;23.014;2023-04-29T08:21:02;101151.38;;;21.91;36.59
42725;BME280;28369;44.046;23.014;2023-04-29T08:23:28;101265.06;;;21.95;37.45
42725;BME280;28369;44.046;23.014;2023-04-29T08:25:54;101311.59;;;22.52;36.90
42725;BME280;28369;44.046;23.014;2023-04-29T08:28:23;101279.13;;;22.62;36.59
42725;BME280;28369;44.046;23.014;2023-04-29T08:30:49;101279.22;;;21.74;37.19
42725;BME280;28369;44.046;23.014;2023-04-29T08:33:15;101302.34;;;21.07;39.11
42725;BME280;28369;44.046;23.014;2023-04-29T08:35:41;101037.44;;;19.74;38.47
42725;BME280;28369;44.046;23.014;2023-04-29T08:38:07;101295.63;;;22.66;37.81
42725;BME280;28369;44.046;23.014;2023-04-29T08:40:42;101253.84;;;22.71;36.70
42725;BME280;28369;44.046;23.014;2023-04-29T08:43:09;101323.44;;;23.78;35.09
42725;BME280;28369;44.046;23.014;2023-04-29T08:45:35;101268.94;;;23.36;35.97
42725;BME280;28369;44.046;23.014;2023-04-29T08:48:02;101199.97;;;23.23;35.03
42725;BME280;28369;44.046;23.014;2023-04-29T08:50:30;101334.81;;;22.67;35.98
42725;BME280;28369;44.046;23.014;2023-04-29T08:52:56;101251.88;;;22.58;35.43
42725;BME280;28369;44.046;23.014;2023-04-29T08:55:21;101186.69;;;23.63;33.67
42725;BME280;28369;44.046;23.014;2023-04-29T08:57:49;101148.31;;;22.44;34.52
42725;BME280;28369;44.046;23.014;2023-04-29T09:00:15;101312.66;;;24.20;33.95
42725;BME280;28369;44.046;23.014;2023-04-29T09:02:50;101190.03;;;23.23;34.47
42725;BME280;28369;44.046;23.014;2023-04-29T09:05:17;101319.41;;;23.95;34.79
42725;BME280;28369;44.046;23.014;2023-04-29T09:07:44;101208.09;;;22.73;35.54
42725;BME280;28369;44.046;23.014;2023-04-29T09:10:10;101296.16;;;23.33;35.36
42725;BME280;28369;44.046;23.014;2023-04-29T09:12:36;101285.84;;;23.78;34.65
42725;BME280;28369;44.046;23.014;2023-04-29T09:15:02;101276.09;;;22.72;35.28
42725;BME280;28369;44.046;23.014;2023-04-29T09:23:02;101069.94;;;21.79;35.25
42725;BME280;28369;44.046;23.014;2023-04-29T09:25:29;101279.81;;;22.71;35.98
42725;BME280;28369;44.046;23.014;2023-04-29T09:27:55;101098.38;;;21.43;35.96
42725;BME280;28369;44.046;23.014;2023-04-29T09:30:21;101272.44;;;22.15;36.92
42725;BME280;28369;44.046;23.014;2023-04-29T09:33:07;101294.03;;;21.91;37.54
42725;BME280;28369;44.046;23.014;2023-04-29T09:35:33;101212.84;;;21.84;37.33
42725;BME280;28369;44.046;23.014;2023-04-29T09:38:10;101185.97;;;22.14;36.84
42725;BME280;28369;44.046;23.014;2023-04-29T09:40:36;101023.63;;;21.78;36.32
42725;BME280;28369;44.046;23.014;2023-04-29T09:43:02;101273.94;;;23.94;34.16
42725;BME280;28369;44.046;23.014;2023-04-29T09:45:35;101082.47;;;22.56;33.78
42725;BME280;28369;44.046;23.014;2023-04-29T09:48:04;101268.25;;;23.69;34.59
42725;BME280;28369;44.046;23.014;2023-04-29T09:50:31;101196.53;;;22.22;36.50
42725;BME280;28369;44.046;23.014;2023-04-29T09:52:57;101247.28;;;22.09;37.29
42725;BME280;28369;44.046;23.014;2023-04-29T09:55:23;101260.91;;;22.79;37.25
42725;BME280;28369;44.046;23.014;2023-04-29T09:57:48;101148.91;;;21.96;37.39
42725;BME280;28369;44.046;23.014;2023-04-29T10:00:14;101197.56;;;22.21;37.44
42725;BME280;28369;44.046;23.014;2023-04-29T10:02:41;101168.16;;;21.85;37.34
42725;BME280;28369;44.046;23.014;2023-04-29T10:05:08;101181.94;;;22.25;37.86
42725;BME280;28369;44.046;23.014;2023-04-29T10:07:38;101239.38;;;22.94;36.95
42725;BME280;28369;44.046;23.014;2023-04-29T10:10:04;101242.41;;;23.54;36.39
42725;BME280;28369;44.046;23.014;2023-04-29T10:12:33;101113.06;;;22.12;37.13
42725;BME280;28369;44.046;23.014;2023-04-29T10:15:31;101206.34;;;23.77;36.02
42725;BME280;28369;44.046;23.014;2023-04-29T10:18:23;101256.91;;;23.67;36.57
42725;BME280;28369;44.046;23.014;2023-04-29T10:20:51;101254.91;;;23.40;36.69
42725;BME280;28369;44.046;23.014;2023-04-29T10:23:16;101052.88;;;23.33;35.20
42725;BME280;28369;44.046;23.014;2023-04-29T10:25:45;101157.28;;;23.35;34.87
42725;BME280;28369;44.046;23.014;2023-04-29T10:28:14;101252.19;;;23.82;35.20
42725;BME280;28369;44.046;23.014;2023-04-29T10:30:44;101234.28;;;23.89;35.25
42725;BME280;28369;44.046;23.014;2023-04-29T10:33:15;101221.97;;;24.55;34.75
42725;BME280;28369;44.046;23.014;2023-04-29T10:35:42;101245.50;;;25.07;33.46
42725;BME280;28369;44.046;23.014;2023-04-29T10:38:23;101203.97;;;24.42;34.14
42725;BME280;28369;44.046;23.014;2023-04-29T10:40:50;101240.78;;;24.62;33.79
42725;BME280;28369;44.046;23.014;2023-04-29T10:43:24;101237.66;;;24.72;33.89
42725;BME280;28369;44.046;23.014;2023-04-29T10:48:46;101212.03;;;24.22;33.89
42725;BME280;28369;44.046;23.014;2023-04-29T10:51:12;101215.13;;;24.12;35.07
42725;BME280;28369;44.046;23.014;2023-04-29T10:54:08;101235.75;;;24.12;34.91
42725;BME280;28369;44.046;23.014;2023-04-29T10:57:04;101228.78;;;24.51;34.16
42725;BME280;28369;44.046;23.014;2023-04-29T11:01:58;101066.94;;;24.42;32.71
42725;BME280;28369;44.046;23.014;2023-04-29T11:04:23;101175.47;;;24.21;34.14
42725;BME280;28369;44.046;23.014;2023-04-29T11:07:01;101194.19;;;25.01;32.92
42725;BME280;28369;44.046;23.014;2023-04-29T11:09:49;101229.22;;;24.68;33.70
42725;BME280;28369;44.046;23.014;2023-04-29T11:12:19;101172.75;;;25.40;33.21
42725;BME280;28369;44.046;23.014;2023-04-29T11:14:50;101223.41;;;25.95;32.28
42725;BME280;28369;44.046;23.014;2023-04-29T11:17:17;101217.28;;;25.29;33.04
42725;BME280;28369;44.046;23.014;2023-04-29T11:19:47;101218.50;;;25.40;33.52
42725;BME280;28369;44.046;23.014;2023-04-29T11:22:28;101214.91;;;25.53;33.45
42725;BME280;28369;44.046;23.014;2023-04-29T11:25:05;101215.00;;;25.26;33.97
42725;BME280;28369;44.046;23.014;2023-04-29T11:34:42;101198.16;;;24.52;35.08
42725;BME280;28369;44.046;23.014;2023-04-29T11:40:31;101179.72;;;24.96;33.44
42725;BME280;28369;44.046;23.014;2023-04-29T11:46:21;101161.84;;;25.22;32.97
42725;BME280;28369;44.046;23.014;2023-04-29T11:52:09;101138.50;;;25.86;32.19
42725;BME280;28369;44.046;23.014;2023-04-29T11:54:35;101134.56;;;26.39;31.77
42725;BME280;28369;44.046;23.014;2023-04-29T11:57:01;101176.91;;;25.75;32.85
42725;BME280;28369;44.046;23.014;2023-04-29T11:59:30;101078.28;;;25.55;32.58
42725;BME280;28369;44.046;23.014;2023-04-29T12:01:57;100964.38;;;24.97;31.77
42725;BME280;28369;44.046;23.014;2023-04-29T12:04:24;101110.88;;;25.33;33.32
42725;BME280;28369;44.046;23.014;2023-04-29T12:06:56;101140.09;;;25.23;32.97
42725;BME280;28369;44.046;23.014;2023-04-29T12:12:18;101010.28;;;25.85;31.39
42725;BME280;28369;44.046;23.014;2023-04-29T12:14:44;101163.66;;;25.28;32.24
42725;BME280;28369;44.046;23.014;2023-04-29T12:17:10;101142.13;;;25.41;32.70
42725;BME280;28369;44.046;23.014;2023-04-29T12:19:38;101098.22;;;25.41;32.73
42725;BME280;28369;44.046;23.014;2023-04-29T12:22:04;101111.44;;;25.49;32.33
42725;BME280;28369;44.046;23.014;2023-04-29T12:24:34;101156.66;;;25.20;33.10
42725;BME280;28369;44.046;23.014;2023-04-29T12:27:00;101119.38;;;25.37;33.37
42725;BME280;28369;44.046;23.014;2023-04-29T12:29:25;101083.34;;;25.95;32.47
42725;BME280;28369;44.046;23.014;2023-04-29T12:31:51;101120.59;;;25.73;32.84
42725;BME280;28369;44.046;23.014;2023-04-29T12:34:23;100967.94;;;25.55;31.28
42725;BME280;28369;44.046;23.014;2023-04-29T12:36:49;101153.91;;;26.98;31.52
42725;BME280;28369;44.046;23.014;2023-04-29T12:39:14;101113.41;;;26.43;30.81
42725;BME280;28369;44.046;23.014;2023-04-29T12:41:41;101072.34;;;25.01;32.39
42725;BME280;28369;44.046;23.014;2023-04-29T12:44:07;101099.97;;;25.15;32.22
42725;BME280;28369;44.046;23.014;2023-04-29T12:46:37;100930.34;;;25.16;31.01
42725;BME280;28369;44.046;23.014;2023-04-29T12:49:04;101109.03;;;26.85;31.29
42725;BME280;28369;44.046;23.014;2023-04-29T12:51:33;101098.28;;;26.60;31.44
42725;BME280;28369;44.046;23.014;2023-04-29T12:54:01;101091.19;;;27.75;30.09
42725;BME280;28369;44.046;23.014;2023-04-29T12:56:30;101082.75;;;26.18;30.88
42725;BME280;28369;44.046;23.014;2023-04-29T12:59:07;101118.53;;;26.00;31.29
42725;BME280;28369;44.046;23.014;2023-04-29T13:01:33;101071.47;;;26.65;29.85
42725;BME280;28369;44.046;23.014;2023-04-29T13:03:58;101132.53;;;26.97;30.29
42725;BME280;28369;44.046;23.014;2023-04-29T13:06:24;101051.34;;;27.17;29.55
42725;BME280;28369;44.046;23.014;2023-04-29T13:08:50;100982.47;;;27.14;28.54
42725;BME280;28369;44.046;23.014;2023-04-29T13:11:16;100928.16;;;26.68;29.28
42725;BME280;28369;44.046;23.014;2023-04-29T13:13:41;101113.97;;;27.19;29.26
42725;BME280;28369;44.046;23.014;2023-04-29T13:16:07;101110.22;;;26.89;29.38
42725;BME280;28369;44.046;23.014;2023-04-29T13:18:33;100906.03;;;25.55;29.57
42725;BME280;28369;44.046;23.014;2023-04-29T13:20:59;101085.59;;;26.24;30.64
42725;BME280;28369;44.046;23.014;2023-04-29T13:23:25;101045.22;;;25.48;31.21
42725;BME280;28369;44.046;23.014;2023-04-29T13:25:50;101039.88;;;25.92;29.95
42725;BME280;28369;44.046;23.014;2023-04-29T13:28:16;101091.09;;;26.35;29.43
42725;BME280;28369;44.046;23.014;2023-04-29T13:30:41;101047.06;;;26.23;29.34
42725;BME280;28369;44.046;23.014;2023-04-29T13:33:07;101078.72;;;26.28;29.58
42725;BME280;28369;44.046;23.014;2023-04-29T13:35:33;101022.63;;;25.74;29.51
42725;BME280;28369;44.046;23.014;2023-04-29T13:38:00;101080.88;;;27.12;28.10
42725;BME280;28369;44.046;23.014;2023-04-29T13:40:26;101035.78;;;27.00;27.82
42725;BME280;28369;44.046;23.014;2023-04-29T13:42:52;101079.22;;;27.11;27.93
42725;BME280;28369;44.046;23.014;2023-04-29T13:45:17;101076.94;;;27.26;27.57